createdAt,value
2022-08-26T00:00:32.512Z,997.39
2022-08-26T00:01:32.259Z,997.39
2022-08-26T00:02:32.307Z,997.36
2022-08-26T00:03:32.229Z,997.33
2022-08-26T00:04:32.235Z,997.32
2022-08-26T00:05:32.220Z,997.32
2022-08-26T00:06:32.216Z,997.30
2022-08-26T00:07:32.201Z,997.27
2022-08-26T00:08:32.212Z,997.30
2022-08-26T00:09:32.163Z,997.23
2022-08-26T00:10:32.153Z,997.22
2022-08-26T00:11:32.943Z,997.24
2022-08-26T00:12:37.498Z,997.22
2022-08-26T00:13:33.113Z,997.24
2022-08-26T00:14:32.085Z,997.24
2022-08-26T00:15:32.081Z,997.26
2022-08-26T00:16:32.137Z,997.26
2022-08-26T00:17:32.097Z,997.29
2022-08-26T00:18:38.700Z,997.22
2022-08-26T00:19:33.028Z,997.22
2022-08-26T00:20:32.954Z,997.28
2022-08-26T00:21:32.014Z,997.29
2022-08-26T00:22:31.987Z,997.27
2022-08-26T00:23:31.969Z,997.25
2022-08-26T00:24:31.957Z,997.33
2022-08-26T00:25:31.948Z,997.33
2022-08-26T00:26:31.929Z,997.35
2022-08-26T00:27:31.919Z,997.35
2022-08-26T00:28:31.895Z,997.29
2022-08-26T00:29:31.983Z,997.29
2022-08-26T00:30:31.893Z,997.27
2022-08-26T00:31:31.905Z,997.29
2022-08-26T00:32:31.852Z,997.26
2022-08-26T00:33:31.835Z,997.29
2022-08-26T00:34:31.821Z,997.31
2022-08-26T00:35:31.853Z,997.35
2022-08-26T00:36:31.804Z,997.32
2022-08-26T00:37:31.796Z,997.31
2022-08-26T00:38:31.772Z,997.33
2022-08-26T00:39:31.753Z,997.35
2022-08-26T00:40:31.837Z,997.32
2022-08-26T00:41:31.734Z,997.35
2022-08-26T00:42:31.724Z,997.30
2022-08-26T00:43:31.714Z,997.29
2022-08-26T00:44:32.687Z,997.31
2022-08-26T00:45:31.731Z,997.26
2022-08-26T00:46:31.688Z,997.27
2022-08-26T00:47:31.669Z,997.23
2022-08-26T00:48:31.814Z,997.26
2022-08-26T00:49:31.627Z,997.27
2022-08-26T00:50:31.610Z,997.29
2022-08-26T00:51:31.603Z,997.28
2022-08-26T00:52:31.589Z,997.29
2022-08-26T00:53:31.569Z,997.28
2022-08-26T00:54:31.599Z,997.28
2022-08-26T00:55:34.665Z,997.28
2022-08-26T00:56:32.540Z,997.28
2022-08-26T00:57:31.533Z,997.27
2022-08-26T00:58:31.500Z,997.26
2022-08-26T00:59:32.710Z,997.27
2022-08-26T01:00:31.481Z,997.25
2022-08-26T01:01:31.568Z,997.25
2022-08-26T01:02:31.494Z,997.26
2022-08-26T01:03:31.441Z,997.23
2022-08-26T01:04:31.448Z,997.26
2022-08-26T01:05:31.412Z,997.24
2022-08-26T01:06:31.421Z,997.26
2022-08-26T01:07:31.470Z,997.23
2022-08-26T01:08:31.369Z,997.21
2022-08-26T01:09:32.314Z,997.21
2022-08-26T01:10:31.379Z,997.25
2022-08-26T01:11:31.337Z,997.22
2022-08-26T01:12:31.309Z,997.19
2022-08-26T01:13:31.580Z,997.20
2022-08-26T01:14:31.296Z,997.21
2022-08-26T01:15:32.816Z,997.19
2022-08-26T01:16:31.348Z,997.18
2022-08-26T01:17:31.285Z,997.14
2022-08-26T01:18:31.298Z,997.15
2022-08-26T01:19:31.229Z,997.11
2022-08-26T01:20:31.223Z,997.14
2022-08-26T01:21:31.209Z,997.17
2022-08-26T01:22:31.190Z,997.15
2022-08-26T01:23:31.171Z,997.13
2022-08-26T01:24:31.185Z,997.14
2022-08-26T01:25:32.102Z,997.15
2022-08-26T01:26:31.151Z,997.12
2022-08-26T01:27:32.396Z,997.17
2022-08-26T01:28:31.102Z,997.16
2022-08-26T01:29:31.106Z,997.14
2022-08-26T01:30:31.077Z,997.15
2022-08-26T01:31:31.117Z,997.15
2022-08-26T01:32:31.048Z,997.16
2022-08-26T01:33:31.042Z,997.15
2022-08-26T01:34:32.025Z,997.15
2022-08-26T01:35:31.015Z,997.15
2022-08-26T01:36:31.001Z,997.13
2022-08-26T01:37:30.994Z,997.16
2022-08-26T01:38:30.984Z,997.14
2022-08-26T01:39:30.965Z,997.13
2022-08-26T01:40:31.009Z,997.12
2022-08-26T01:41:30.936Z,997.12
2022-08-26T01:42:30.916Z,997.11
2022-08-26T01:43:30.896Z,997.14
2022-08-26T01:44:31.837Z,997.13
2022-08-26T01:45:30.935Z,997.18
2022-08-26T01:46:30.865Z,997.17
2022-08-26T01:47:30.851Z,997.16
2022-08-26T01:48:30.830Z,997.18
2022-08-26T01:49:31.926Z,997.15
2022-08-26T01:50:30.808Z,997.14
2022-08-26T01:51:31.590Z,997.13
2022-08-26T01:52:30.777Z,997.15
2022-08-26T01:53:30.829Z,997.12
2022-08-26T01:54:30.750Z,997.08
2022-08-26T01:55:32.989Z,997.09
2022-08-26T01:56:33.408Z,997.10
2022-08-26T01:57:31.713Z,997.09
2022-08-26T01:58:30.711Z,997.08
2022-08-26T01:59:30.699Z,997.14
2022-08-26T02:00:30.688Z,997.11
2022-08-26T02:01:30.673Z,997.11
2022-08-26T02:02:30.643Z,997.10
2022-08-26T02:03:30.657Z,997.13
2022-08-26T02:04:31.047Z,997.12
2022-08-26T02:05:30.625Z,997.12
2022-08-26T02:06:30.595Z,997.14
2022-08-26T02:07:30.575Z,997.16
2022-08-26T02:08:30.583Z,997.13
2022-08-26T02:09:30.814Z,997.15
2022-08-26T02:10:30.554Z,997.16
2022-08-26T02:11:30.538Z,997.14
2022-08-26T02:12:30.526Z,997.12
2022-08-26T02:13:30.522Z,997.13
2022-08-26T02:14:30.514Z,997.12
2022-08-26T02:15:30.479Z,997.12
2022-08-26T02:16:30.494Z,997.12
2022-08-26T02:17:30.461Z,997.13
2022-08-26T02:18:30.444Z,997.12
2022-08-26T02:19:30.430Z,997.15
2022-08-26T02:20:30.458Z,997.16
2022-08-26T02:21:30.400Z,997.13
2022-08-26T02:22:30.393Z,997.13
2022-08-26T02:23:30.372Z,997.13
2022-08-26T02:24:30.362Z,997.09
2022-08-26T02:25:30.353Z,997.10
2022-08-26T02:26:30.358Z,997.08
2022-08-26T02:27:32.307Z,997.04
2022-08-26T02:28:30.323Z,997.02
2022-08-26T02:29:30.294Z,997.05
2022-08-26T02:30:30.302Z,997.05
2022-08-26T02:31:30.311Z,997.02
2022-08-26T02:32:30.249Z,997.03
2022-08-26T02:33:30.250Z,997.03
2022-08-26T02:34:31.205Z,997.04
2022-08-26T02:35:31.175Z,997.07
2022-08-26T02:36:31.138Z,997.04
2022-08-26T02:37:30.196Z,997.02
2022-08-26T02:38:30.169Z,997.01
2022-08-26T02:39:30.157Z,997.00
2022-08-26T02:40:31.144Z,996.96
2022-08-26T02:41:30.128Z,996.97
2022-08-26T02:42:30.120Z,996.99
2022-08-26T02:43:32.705Z,996.96
2022-08-26T02:44:30.089Z,996.95
2022-08-26T02:45:30.117Z,996.97
2022-08-26T02:46:30.329Z,997.00
2022-08-26T02:47:30.051Z,996.97
2022-08-26T02:48:30.992Z,996.98
2022-08-26T02:49:30.048Z,996.98
2022-08-26T02:50:30.011Z,996.99
2022-08-26T02:51:30.012Z,996.96
2022-08-26T02:52:29.981Z,996.96
2022-08-26T02:53:31.681Z,996.94
2022-08-26T02:54:29.971Z,996.93
2022-08-26T02:55:30.224Z,996.89
2022-08-26T02:56:29.932Z,996.94
2022-08-26T02:57:30.873Z,996.88
2022-08-26T02:58:29.900Z,996.93
2022-08-26T02:59:30.863Z,996.93
2022-08-26T03:00:29.934Z,996.93
2022-08-26T03:01:29.963Z,996.92
2022-08-26T03:02:29.852Z,996.95
2022-08-26T03:03:29.846Z,996.95
2022-08-26T03:04:30.814Z,996.91
2022-08-26T03:05:29.826Z,996.92
2022-08-26T03:06:29.790Z,996.90
2022-08-26T03:07:29.788Z,996.88
2022-08-26T03:08:29.768Z,996.89
2022-08-26T03:09:29.768Z,996.88
2022-08-26T03:10:29.738Z,996.89
2022-08-26T03:11:33.143Z,996.90
2022-08-26T03:12:30.664Z,996.90
2022-08-26T03:13:30.663Z,996.91
2022-08-26T03:14:29.698Z,996.90
2022-08-26T03:15:29.683Z,996.89
2022-08-26T03:16:32.306Z,996.88
2022-08-26T03:17:29.891Z,996.86
2022-08-26T03:18:29.631Z,996.87
2022-08-26T03:19:30.594Z,996.87
2022-08-26T03:20:29.622Z,996.83
2022-08-26T03:21:29.607Z,996.84
2022-08-26T03:22:29.598Z,996.81
2022-08-26T03:23:30.528Z,996.82
2022-08-26T03:24:29.575Z,996.82
2022-08-26T03:25:29.569Z,996.87
2022-08-26T03:26:29.562Z,996.84
2022-08-26T03:27:29.522Z,996.87
2022-08-26T03:28:29.505Z,996.82
2022-08-26T03:29:30.707Z,996.87
2022-08-26T03:30:29.476Z,996.88
2022-08-26T03:31:29.599Z,996.85
2022-08-26T03:32:29.445Z,996.87
2022-08-26T03:33:29.437Z,996.84
2022-08-26T03:34:29.438Z,996.83
2022-08-26T03:35:29.410Z,996.82
2022-08-26T03:36:29.389Z,996.83
2022-08-26T03:37:29.378Z,996.82
2022-08-26T03:38:29.378Z,996.81
2022-08-26T03:39:31.413Z,996.84
2022-08-26T03:40:29.381Z,996.81
2022-08-26T03:41:29.332Z,996.75
2022-08-26T03:42:29.321Z,996.81
2022-08-26T03:43:29.303Z,996.81
2022-08-26T03:44:29.325Z,996.78
2022-08-26T03:45:29.290Z,996.77
2022-08-26T03:46:29.328Z,996.78
2022-08-26T03:47:29.252Z,996.77
2022-08-26T03:48:29.232Z,996.77
2022-08-26T03:49:29.249Z,996.76
2022-08-26T03:50:29.207Z,996.75
2022-08-26T03:51:29.201Z,996.75
2022-08-26T03:52:29.183Z,996.77
2022-08-26T03:53:29.174Z,996.77
2022-08-26T03:54:29.174Z,996.75
2022-08-26T03:55:29.144Z,996.76
2022-08-26T03:56:29.125Z,996.82
2022-08-26T03:57:29.116Z,996.80
2022-08-26T03:58:29.101Z,996.79
2022-08-26T03:59:29.103Z,996.81
2022-08-26T04:00:29.084Z,996.79
2022-08-26T04:01:29.167Z,996.79
2022-08-26T04:02:29.085Z,996.83
2022-08-26T04:03:29.089Z,996.81
2022-08-26T04:04:29.038Z,996.82
2022-08-26T04:05:29.009Z,996.79
2022-08-26T04:06:28.990Z,996.81
2022-08-26T04:07:28.989Z,996.77
2022-08-26T04:08:28.969Z,996.80
2022-08-26T04:09:28.981Z,996.78
2022-08-26T04:10:29.595Z,996.75
2022-08-26T04:11:28.943Z,996.74
2022-08-26T04:12:28.944Z,996.74
2022-08-26T04:13:28.917Z,996.76
2022-08-26T04:14:28.900Z,996.72
2022-08-26T04:15:29.833Z,996.74
2022-08-26T04:16:28.922Z,996.74
2022-08-26T04:17:28.852Z,996.73
2022-08-26T04:18:33.018Z,996.74
2022-08-26T04:19:29.834Z,996.72
2022-08-26T04:20:28.813Z,996.73
2022-08-26T04:21:28.795Z,996.71
2022-08-26T04:22:29.386Z,996.68
2022-08-26T04:23:28.795Z,996.71
2022-08-26T04:24:28.763Z,996.71
2022-08-26T04:25:28.745Z,996.71
2022-08-26T04:26:28.725Z,996.70
2022-08-26T04:27:28.726Z,996.70
2022-08-26T04:28:28.696Z,996.71
2022-08-26T04:29:28.697Z,996.68
2022-08-26T04:30:28.681Z,996.68
2022-08-26T04:31:28.712Z,996.66
2022-08-26T04:32:28.650Z,996.64
2022-08-26T04:33:32.320Z,996.65
2022-08-26T04:34:28.965Z,996.64
2022-08-26T04:35:28.609Z,996.66
2022-08-26T04:36:28.599Z,996.64
2022-08-26T04:37:28.580Z,996.66
2022-08-26T04:38:28.583Z,996.69
2022-08-26T04:39:28.550Z,996.72
2022-08-26T04:40:28.585Z,996.70
2022-08-26T04:41:28.631Z,996.71
2022-08-26T04:42:28.522Z,996.72
2022-08-26T04:43:28.527Z,996.68
2022-08-26T04:44:28.501Z,996.69
2022-08-26T04:45:28.474Z,996.65
2022-08-26T04:46:28.500Z,996.70
2022-08-26T04:47:32.240Z,996.72
2022-08-26T04:48:28.564Z,996.70
2022-08-26T04:49:28.414Z,996.72
2022-08-26T04:50:29.435Z,996.75
2022-08-26T04:51:28.392Z,996.71
2022-08-26T04:52:28.385Z,996.71
2022-08-26T04:53:28.376Z,996.74
2022-08-26T04:54:28.367Z,996.75
2022-08-26T04:55:38.302Z,996.73
2022-08-26T04:56:29.338Z,996.75
2022-08-26T04:57:28.321Z,996.74
2022-08-26T04:58:28.319Z,996.76
2022-08-26T04:59:28.298Z,996.79
2022-08-26T05:00:28.285Z,996.79
2022-08-26T05:01:28.325Z,996.80
2022-08-26T05:02:28.280Z,996.83
2022-08-26T05:03:30.543Z,996.83
2022-08-26T05:04:28.255Z,996.91
2022-08-26T05:05:28.210Z,996.93
2022-08-26T05:06:28.201Z,996.88
2022-08-26T05:07:28.181Z,996.90
2022-08-26T05:08:28.181Z,996.88
2022-08-26T05:09:28.152Z,996.91
2022-08-26T05:10:28.153Z,996.90
2022-08-26T05:11:28.129Z,996.89
2022-08-26T05:12:28.122Z,996.91
2022-08-26T05:13:28.123Z,996.90
2022-08-26T05:14:28.105Z,996.88
2022-08-26T05:15:28.074Z,996.85
2022-08-26T05:16:28.099Z,996.85
2022-08-26T05:17:28.056Z,996.88
2022-08-26T05:18:28.056Z,996.88
2022-08-26T05:19:28.072Z,996.85
2022-08-26T05:20:28.023Z,996.89
2022-08-26T05:21:27.996Z,996.88
2022-08-26T05:22:27.986Z,996.89
2022-08-26T05:23:27.976Z,996.90
2022-08-26T05:24:28.047Z,996.90
2022-08-26T05:25:27.947Z,996.89
2022-08-26T05:26:27.937Z,996.89
2022-08-26T05:27:27.916Z,996.90
2022-08-26T05:28:27.919Z,996.94
2022-08-26T05:29:27.890Z,996.91
2022-08-26T05:30:27.887Z,996.92
2022-08-26T05:31:27.914Z,996.92
2022-08-26T05:32:27.856Z,996.92
2022-08-26T05:33:27.849Z,996.92
2022-08-26T05:34:30.346Z,996.96
2022-08-26T05:35:27.812Z,996.94
2022-08-26T05:36:27.807Z,996.94
2022-08-26T05:37:27.782Z,996.93
2022-08-26T05:38:30.160Z,996.97
2022-08-26T05:39:27.762Z,996.92
2022-08-26T05:40:27.819Z,996.93
2022-08-26T05:41:27.730Z,996.92
2022-08-26T05:42:28.722Z,996.89
2022-08-26T05:43:27.733Z,996.90
2022-08-26T05:44:27.704Z,996.92
2022-08-26T05:45:27.675Z,996.91
2022-08-26T05:46:27.711Z,996.87
2022-08-26T05:47:28.692Z,996.86
2022-08-26T05:48:27.657Z,996.85
2022-08-26T05:49:27.626Z,996.87
2022-08-26T05:50:27.627Z,996.88
2022-08-26T05:51:27.656Z,996.82
2022-08-26T05:52:27.607Z,996.83
2022-08-26T05:53:27.578Z,996.85
2022-08-26T05:54:27.568Z,996.82
2022-08-26T05:55:27.548Z,996.82
2022-08-26T05:56:27.724Z,996.83
2022-08-26T05:57:27.514Z,996.81
2022-08-26T05:58:27.522Z,996.80
2022-08-26T05:59:27.512Z,996.80
2022-08-26T06:00:27.547Z,996.81
2022-08-26T06:01:27.556Z,996.81
2022-08-26T06:02:27.484Z,996.80
2022-08-26T06:03:27.448Z,996.77
2022-08-26T06:04:29.597Z,996.77
2022-08-26T06:05:27.412Z,996.81
2022-08-26T06:06:28.534Z,996.83
2022-08-26T06:07:27.394Z,996.77
2022-08-26T06:08:27.383Z,996.76
2022-08-26T06:09:27.361Z,996.81
2022-08-26T06:10:34.431Z,996.77
2022-08-26T06:11:28.332Z,996.81
2022-08-26T06:12:27.356Z,996.81
2022-08-26T06:13:27.322Z,996.80
2022-08-26T06:14:27.297Z,996.75
2022-08-26T06:15:27.307Z,996.76
2022-08-26T06:16:27.296Z,996.77
2022-08-26T06:17:27.256Z,996.78
2022-08-26T06:18:27.248Z,996.77
2022-08-26T06:19:32.723Z,996.79
2022-08-26T06:20:28.239Z,996.78
2022-08-26T06:21:27.198Z,996.77
2022-08-26T06:22:27.203Z,996.77
2022-08-26T06:23:27.180Z,996.76
2022-08-26T06:24:27.519Z,996.75
2022-08-26T06:25:27.151Z,996.76
2022-08-26T06:26:27.140Z,996.74
2022-08-26T06:27:30.654Z,996.73
2022-08-26T06:28:28.141Z,996.72
2022-08-26T06:29:27.092Z,996.68
2022-08-26T06:30:27.082Z,996.75
2022-08-26T06:31:27.114Z,996.73
2022-08-26T06:32:28.154Z,996.73
2022-08-26T06:33:27.048Z,996.76
2022-08-26T06:34:30.579Z,996.77
2022-08-26T06:35:27.973Z,996.79
2022-08-26T06:36:27.005Z,996.76
2022-08-26T06:37:26.999Z,996.81
2022-08-26T06:38:27.016Z,996.71
2022-08-26T06:39:26.996Z,996.72
2022-08-26T06:40:27.100Z,996.72
2022-08-26T06:41:26.926Z,996.74
2022-08-26T06:42:26.937Z,996.73
2022-08-26T06:43:26.938Z,996.74
2022-08-26T06:44:26.962Z,996.74
2022-08-26T06:45:26.874Z,996.77
2022-08-26T06:46:26.916Z,996.73
2022-08-26T06:47:26.903Z,996.79
2022-08-26T06:48:26.852Z,996.75
2022-08-26T06:49:27.782Z,996.75
2022-08-26T06:50:26.830Z,996.78
2022-08-26T06:51:26.840Z,996.78
2022-08-26T06:52:26.790Z,996.75
2022-08-26T06:53:26.781Z,996.77
2022-08-26T06:54:26.823Z,996.77
2022-08-26T06:55:26.969Z,996.74
2022-08-26T06:56:27.702Z,996.81
2022-08-26T06:57:26.732Z,996.82
2022-08-26T06:58:26.733Z,996.81
2022-08-26T06:59:26.713Z,996.84
2022-08-26T07:00:26.704Z,996.76
2022-08-26T07:01:26.716Z,996.73
2022-08-26T07:02:28.614Z,996.77
2022-08-26T07:03:26.652Z,996.78
2022-08-26T07:04:27.906Z,996.74
2022-08-26T07:05:26.616Z,996.75
2022-08-26T07:06:26.606Z,996.71
2022-08-26T07:07:26.631Z,996.71
2022-08-26T07:08:26.745Z,996.68
2022-08-26T07:09:26.587Z,996.72
2022-08-26T07:10:26.558Z,996.72
2022-08-26T07:11:26.536Z,996.69
2022-08-26T07:12:26.525Z,996.70
2022-08-26T07:13:30.751Z,996.74
2022-08-26T07:14:26.523Z,996.74
2022-08-26T07:15:31.104Z,996.71
2022-08-26T07:16:27.522Z,996.72
2022-08-26T07:17:26.490Z,996.74
2022-08-26T07:18:26.462Z,996.72
2022-08-26T07:19:29.882Z,996.72
2022-08-26T07:20:26.423Z,996.75
2022-08-26T07:21:26.403Z,996.74
2022-08-26T07:22:26.414Z,996.72
2022-08-26T07:23:26.413Z,996.74
2022-08-26T07:24:29.059Z,996.73
2022-08-26T07:25:26.605Z,996.74
2022-08-26T07:26:26.345Z,996.75
2022-08-26T07:27:26.349Z,996.76
2022-08-26T07:28:26.347Z,996.75
2022-08-26T07:29:26.295Z,996.76
2022-08-26T07:30:26.287Z,996.75
2022-08-26T07:31:26.331Z,996.78
2022-08-26T07:32:26.266Z,996.79
2022-08-26T07:33:26.254Z,996.82
2022-08-26T07:34:26.300Z,996.83
2022-08-26T07:35:26.231Z,996.84
2022-08-26T07:36:26.209Z,996.84
2022-08-26T07:37:26.202Z,996.82
2022-08-26T07:38:26.201Z,996.82
2022-08-26T07:39:26.161Z,996.80
2022-08-26T07:40:26.276Z,996.80
2022-08-26T07:41:26.177Z,996.81
2022-08-26T07:42:26.131Z,996.78
2022-08-26T07:43:26.123Z,996.76
2022-08-26T07:44:26.102Z,996.80
2022-08-26T07:45:26.082Z,996.79
2022-08-26T07:46:27.553Z,996.77
2022-08-26T07:47:26.413Z,996.75
2022-08-26T07:48:26.072Z,996.77
2022-08-26T07:49:26.098Z,996.76
2022-08-26T07:50:49.520Z,996.76
2022-08-26T07:51:27.067Z,996.80
2022-08-26T07:52:27.227Z,996.80
2022-08-26T07:53:25.996Z,996.80
2022-08-26T07:54:27.107Z,996.80
2022-08-26T07:55:25.959Z,996.79
2022-08-26T07:56:26.903Z,996.81
2022-08-26T07:57:25.929Z,996.79
2022-08-26T07:58:25.955Z,996.82
2022-08-26T07:59:25.900Z,996.83
2022-08-26T08:00:25.899Z,996.83
2022-08-26T08:01:25.931Z,996.85
2022-08-26T08:02:25.861Z,996.80
2022-08-26T08:03:25.860Z,996.81
2022-08-26T08:04:26.705Z,996.74
2022-08-26T08:05:27.278Z,996.75
2022-08-26T08:06:27.171Z,996.74
2022-08-26T08:07:44.425Z,996.74
2022-08-26T08:08:29.209Z,996.69
2022-08-26T08:09:25.785Z,996.71
2022-08-26T08:10:25.783Z,996.73
2022-08-26T08:11:25.781Z,996.75
2022-08-26T08:12:25.755Z,996.75
2022-08-26T08:13:25.723Z,996.74
2022-08-26T08:14:25.725Z,996.75
2022-08-26T08:15:25.726Z,996.73
2022-08-26T08:16:26.039Z,996.72
2022-08-26T08:17:25.672Z,996.74
2022-08-26T08:18:25.674Z,996.74
2022-08-26T08:19:28.376Z,996.73
2022-08-26T08:20:26.638Z,996.76
2022-08-26T08:21:25.607Z,996.76
2022-08-26T08:22:25.598Z,996.75
2022-08-26T08:23:25.625Z,996.77
2022-08-26T08:24:25.579Z,996.73
2022-08-26T08:25:25.575Z,996.70
2022-08-26T08:26:25.552Z,996.66
2022-08-26T08:27:25.529Z,996.64
2022-08-26T08:28:25.540Z,996.65
2022-08-26T08:29:25.511Z,996.68
2022-08-26T08:30:25.491Z,996.63
2022-08-26T08:31:54.548Z,996.59
2022-08-26T08:32:26.502Z,996.55
2022-08-26T08:33:25.452Z,996.59
2022-08-26T08:34:25.737Z,996.57
2022-08-26T08:35:25.448Z,996.55
2022-08-26T08:36:25.419Z,996.54
2022-08-26T08:37:26.434Z,996.52
2022-08-26T08:38:25.394Z,996.54
2022-08-26T08:39:25.375Z,996.53
2022-08-26T08:40:25.389Z,996.51
2022-08-26T08:41:25.370Z,996.49
2022-08-26T08:42:25.358Z,996.48
2022-08-26T08:43:25.316Z,996.49
2022-08-26T08:45:25.297Z,996.47
2022-08-26T08:46:25.306Z,996.47
2022-08-26T08:47:25.279Z,996.45
2022-08-26T08:48:27.686Z,996.49
2022-08-26T08:49:25.547Z,996.50
2022-08-26T08:50:25.230Z,996.46
2022-08-26T08:51:25.220Z,996.49
2022-08-26T08:52:25.210Z,996.40
2022-08-26T08:53:25.202Z,996.45
2022-08-26T08:54:25.192Z,996.41
2022-08-26T08:55:25.172Z,996.41
2022-08-26T08:56:25.173Z,996.40
2022-08-26T08:57:25.162Z,996.41
2022-08-26T08:58:25.153Z,996.40
2022-08-26T08:59:25.114Z,996.42
2022-08-26T09:00:30.466Z,996.39
2022-08-26T09:01:26.125Z,996.39
2022-08-26T09:02:25.131Z,996.37
2022-08-26T09:03:25.106Z,996.36
2022-08-26T09:04:25.053Z,996.37
2022-08-26T09:05:25.178Z,996.36
2022-08-26T09:06:25.966Z,996.31
2022-08-26T09:07:25.024Z,996.33
2022-08-26T09:08:27.517Z,996.30
2022-08-26T09:09:24.988Z,996.28
2022-08-26T09:10:24.990Z,996.28
2022-08-26T09:11:24.968Z,996.26
2022-08-26T09:12:29.416Z,996.26
2022-08-26T09:13:27.203Z,996.26
2022-08-26T09:14:24.930Z,996.23
2022-08-26T09:15:26.387Z,996.23
2022-08-26T09:16:24.960Z,996.26
2022-08-26T09:17:24.891Z,996.20
2022-08-26T09:18:24.871Z,996.22
2022-08-26T09:19:24.856Z,996.23
2022-08-26T09:20:24.864Z,996.25
2022-08-26T09:21:25.139Z,996.23
2022-08-26T09:22:24.834Z,996.20
2022-08-26T09:23:25.191Z,996.22
2022-08-26T09:24:28.840Z,996.24
2022-08-26T09:25:24.784Z,996.19
2022-08-26T09:26:27.162Z,996.21
2022-08-26T09:27:24.747Z,996.22
2022-08-26T09:28:24.734Z,996.18
2022-08-26T09:29:24.743Z,996.20
2022-08-26T09:30:24.715Z,996.22
2022-08-26T09:31:24.774Z,996.23
2022-08-26T09:32:24.816Z,996.21
2022-08-26T09:33:24.679Z,996.17
2022-08-26T09:34:24.655Z,996.12
2022-08-26T09:35:24.649Z,996.15
2022-08-26T09:36:24.750Z,996.10
2022-08-26T09:37:24.634Z,996.08
2022-08-26T09:38:24.603Z,996.09
2022-08-26T09:39:24.594Z,996.09
2022-08-26T09:40:24.646Z,996.10
2022-08-26T09:41:24.562Z,996.08
2022-08-26T09:42:24.572Z,996.08
2022-08-26T09:43:24.556Z,996.09
2022-08-26T09:44:25.514Z,996.07
2022-08-26T09:45:25.465Z,996.07
2022-08-26T09:46:24.555Z,996.09
2022-08-26T09:47:24.516Z,996.07
2022-08-26T09:48:24.511Z,996.01
2022-08-26T09:49:24.456Z,996.03
2022-08-26T09:50:28.995Z,996.02
2022-08-26T09:51:24.447Z,995.99
2022-08-26T09:52:24.691Z,995.95
2022-08-26T09:53:28.739Z,995.94
2022-08-26T09:54:25.386Z,995.96
2022-08-26T09:55:25.379Z,995.90
2022-08-26T09:56:24.360Z,995.86
2022-08-26T09:57:24.360Z,995.86
2022-08-26T09:58:24.329Z,995.86
2022-08-26T09:59:24.320Z,995.83
2022-08-26T10:00:24.301Z,995.82
2022-08-26T10:01:24.356Z,995.78
2022-08-26T10:02:24.292Z,995.76
2022-08-26T10:03:25.223Z,995.75
2022-08-26T10:04:24.351Z,995.78
2022-08-26T10:05:24.244Z,995.77
2022-08-26T10:06:24.233Z,995.81
2022-08-26T10:07:24.234Z,995.74
2022-08-26T10:08:24.204Z,995.72
2022-08-26T10:09:24.196Z,995.75
2022-08-26T10:10:24.185Z,995.68
2022-08-26T10:11:24.166Z,995.71
2022-08-26T10:12:24.175Z,995.67
2022-08-26T10:13:24.147Z,995.69
2022-08-26T10:14:24.149Z,995.62
2022-08-26T10:15:25.068Z,995.62
2022-08-26T10:16:24.130Z,995.58
2022-08-26T10:17:24.109Z,995.59
2022-08-26T10:18:24.070Z,995.55
2022-08-26T10:19:24.093Z,995.55
2022-08-26T10:20:25.082Z,995.53
2022-08-26T10:21:24.052Z,995.51
2022-08-26T10:22:24.036Z,995.48
2022-08-26T10:23:24.012Z,995.46
2022-08-26T10:24:24.027Z,995.46
2022-08-26T10:25:24.002Z,995.41
2022-08-26T10:26:23.967Z,995.41
2022-08-26T10:27:23.974Z,995.36
2022-08-26T10:28:23.944Z,995.37
2022-08-26T10:29:23.965Z,995.37
2022-08-26T10:30:23.939Z,995.36
2022-08-26T10:31:27.534Z,995.38
2022-08-26T10:32:23.991Z,995.34
2022-08-26T10:33:23.877Z,995.30
2022-08-26T10:34:23.856Z,995.29
2022-08-26T10:35:23.897Z,995.30
2022-08-26T10:36:23.847Z,995.29
2022-08-26T10:37:23.870Z,995.24
2022-08-26T10:38:23.850Z,995.20
2022-08-26T10:39:24.759Z,995.10
2022-08-26T10:40:23.829Z,995.09
2022-08-26T10:41:23.772Z,995.13
2022-08-26T10:42:23.761Z,995.12
2022-08-26T10:43:23.756Z,995.03
2022-08-26T10:44:23.740Z,995.00
2022-08-26T10:45:23.726Z,994.95
2022-08-26T10:46:23.778Z,994.93
2022-08-26T10:47:23.694Z,994.90
2022-08-26T10:48:23.684Z,994.93
2022-08-26T10:49:23.709Z,994.90
2022-08-26T10:50:23.654Z,994.91
2022-08-26T10:51:23.664Z,994.86
2022-08-26T10:52:23.626Z,994.84
2022-08-26T10:53:25.104Z,994.85
2022-08-26T10:54:23.686Z,994.87
2022-08-26T10:55:23.597Z,994.84
2022-08-26T10:56:23.588Z,994.79
2022-08-26T10:57:23.579Z,994.77
2022-08-26T10:58:26.638Z,994.75
2022-08-26T10:59:24.497Z,994.74
2022-08-26T11:00:23.528Z,994.73
2022-08-26T11:01:24.585Z,994.73
2022-08-26T11:02:25.197Z,994.73
2022-08-26T11:03:23.501Z,994.66
2022-08-26T11:04:23.534Z,994.65
2022-08-26T11:05:23.487Z,994.65
2022-08-26T11:06:23.471Z,994.69
2022-08-26T11:07:23.443Z,994.67
2022-08-26T11:08:23.433Z,994.68
2022-08-26T11:09:25.784Z,994.61
2022-08-26T11:10:24.415Z,994.62
2022-08-26T11:11:23.385Z,994.59
2022-08-26T11:12:23.366Z,994.60
2022-08-26T11:13:23.362Z,994.60
2022-08-26T11:14:26.668Z,994.62
2022-08-26T11:15:24.976Z,994.60
2022-08-26T11:16:23.353Z,994.57
2022-08-26T11:17:23.338Z,994.61
2022-08-26T11:18:23.318Z,994.58
2022-08-26T11:19:24.576Z,994.54
2022-08-26T11:20:23.809Z,994.63
2022-08-26T11:21:23.280Z,994.53
2022-08-26T11:22:24.240Z,994.59
2022-08-26T11:23:23.243Z,994.53
2022-08-26T11:24:23.220Z,994.55
2022-08-26T11:25:27.743Z,994.53
2022-08-26T11:26:37.588Z,994.53
2022-08-26T11:27:24.423Z,994.57
2022-08-26T11:28:23.164Z,994.58
2022-08-26T11:29:23.154Z,994.57
2022-08-26T11:30:24.097Z,994.62
2022-08-26T11:31:23.208Z,994.62
2022-08-26T11:32:23.115Z,994.60
2022-08-26T11:33:23.115Z,994.66
2022-08-26T11:34:23.116Z,994.67
2022-08-26T11:35:23.074Z,994.76
2022-08-26T11:36:23.065Z,994.74
2022-08-26T11:37:23.061Z,994.74
2022-08-26T11:38:23.037Z,994.81
2022-08-26T11:39:23.044Z,994.83
2022-08-26T11:40:25.013Z,994.93
2022-08-26T11:41:23.010Z,994.92
2022-08-26T11:42:22.980Z,994.98
2022-08-26T11:43:22.981Z,995.01
2022-08-26T11:44:22.982Z,995.06
2022-08-26T11:45:23.874Z,995.14
2022-08-26T11:46:22.931Z,995.16
2022-08-26T11:47:22.943Z,995.11
2022-08-26T11:48:22.912Z,995.03
2022-08-26T11:49:22.906Z,995.04
2022-08-26T11:50:22.883Z,995.03
2022-08-26T11:51:22.876Z,995.00
2022-08-26T11:52:22.922Z,995.08
2022-08-26T11:53:22.921Z,995.10
2022-08-26T11:54:35.287Z,995.10
2022-08-26T11:55:24.240Z,995.19
2022-08-26T11:56:22.807Z,995.18
2022-08-26T11:57:22.836Z,995.18
2022-08-26T11:58:23.017Z,995.19
2022-08-26T11:59:22.813Z,995.22
2022-08-26T12:00:23.642Z,995.22
2022-08-26T12:01:22.739Z,995.25
2022-08-26T12:02:22.732Z,995.24
2022-08-26T12:03:23.022Z,995.26
2022-08-26T12:04:22.825Z,995.26
2022-08-26T12:05:22.682Z,995.26
2022-08-26T12:06:23.647Z,995.22
2022-08-26T12:07:24.190Z,995.21
2022-08-26T12:08:22.641Z,995.13
2022-08-26T12:09:22.656Z,995.08
2022-08-26T12:10:22.608Z,995.05
2022-08-26T12:11:22.603Z,995.06
2022-08-26T12:12:22.593Z,994.97
2022-08-26T12:13:22.824Z,994.91
2022-08-26T12:14:22.586Z,994.88
2022-08-26T12:15:22.557Z,994.87
2022-08-26T12:16:23.518Z,994.81
2022-08-26T12:17:22.694Z,994.83
2022-08-26T12:18:29.195Z,994.81
2022-08-26T12:19:23.523Z,994.80
2022-08-26T12:20:22.487Z,994.84
2022-08-26T12:21:22.493Z,994.87
2022-08-26T12:22:22.464Z,994.90
2022-08-26T12:23:22.459Z,994.95
2022-08-26T12:24:22.439Z,994.95
2022-08-26T12:25:22.427Z,994.97
2022-08-26T12:26:22.409Z,994.97
2022-08-26T12:27:22.389Z,995.03
2022-08-26T12:28:23.212Z,994.99
2022-08-26T12:29:27.237Z,994.99